sensor_id;sensor_type;location;lat;lon;timestamp;temperature;humidity
27890;DHT22;15238;49.082;9.102;2022-09-03T00:00:03;17.50;83.90
27890;DHT22;15238;49.082;9.102;2022-09-03T00:02:34;17.50;83.80
27890;DHT22;15238;49.082;9.102;2022-09-03T00:04:45;17.40;84.50
27890;DHT22;15238;49.082;9.102;2022-09-03T00:06:53;17.30;84.80
27890;DHT22;15238;49.082;9.102;2022-09-03T00:09:00;17.30;84.80
27890;DHT22;15238;49.082;9.102;2022-09-03T00:11:17;17.30;85.20
27890;DHT22;15238;49.082;9.102;2022-09-03T00:13:44;17.30;84.80
27890;DHT22;15238;49.082;9.102;2022-09-03T00:15:43;17.30;84.70
27890;DHT22;15238;49.082;9.102;2022-09-03T00:20:53;17.40;84.70
27890;DHT22;15238;49.082;9.102;2022-09-03T00:23:00;17.40;84.70
27890;DHT22;15238;49.082;9.102;2022-09-03T00:25:05;17.50;84.80
27890;DHT22;15238;49.082;9.102;2022-09-03T00:27:12;17.40;85.00
27890;DHT22;15238;49.082;9.102;2022-09-03T00:29:23;17.50;85.00
27890;DHT22;15238;49.082;9.102;2022-09-03T00:31:31;17.60;85.00
27890;DHT22;15238;49.082;9.102;2022-09-03T00:33:32;17.50;85.00
27890;DHT22;15238;49.082;9.102;2022-09-03T00:37:38;17.50;84.90
27890;DHT22;15238;49.082;9.102;2022-09-03T00:39:41;17.60;84.80
27890;DHT22;15238;49.082;9.102;2022-09-03T00:46:33;17.40;86.10
27890;DHT22;15238;49.082;9.102;2022-09-03T00:49:03;17.30;86.80
27890;DHT22;15238;49.082;9.102;2022-09-03T00:53:50;17.20;87.90
27890;DHT22;15238;49.082;9.102;2022-09-03T00:58:43;17.00;88.90
27890;DHT22;15238;49.082;9.102;2022-09-03T01:00:48;16.90;89.40
27890;DHT22;15238;49.082;9.102;2022-09-03T01:03:03;16.80;90.00
27890;DHT22;15238;49.082;9.102;2022-09-03T01:05:26;16.70;90.10
27890;DHT22;15238;49.082;9.102;2022-09-03T01:08:08;16.60;90.20
27890;DHT22;15238;49.082;9.102;2022-09-03T01:12:57;16.50;90.50
27890;DHT22;15238;49.082;9.102;2022-09-03T01:15:35;16.50;90.70
27890;DHT22;15238;49.082;9.102;2022-09-03T01:17:52;16.50;90.70
27890;DHT22;15238;49.082;9.102;2022-09-03T01:22:12;16.30;91.00
27890;DHT22;15238;49.082;9.102;2022-09-03T01:29:10;16.20;91.60
27890;DHT22;15238;49.082;9.102;2022-09-03T01:31:31;16.20;91.90
27890;DHT22;15238;49.082;9.102;2022-09-03T01:36:05;16.20;92.00
27890;DHT22;15238;49.082;9.102;2022-09-03T01:38:22;16.30;92.00
27890;DHT22;15238;49.082;9.102;2022-09-03T01:42:58;16.30;92.20
27890;DHT22;15238;49.082;9.102;2022-09-03T01:49:59;16.20;92.50
27890;DHT22;15238;49.082;9.102;2022-09-03T01:56:18;16.10;92.70
27890;DHT22;15238;49.082;9.102;2022-09-03T02:00:53;16.10;92.90
27890;DHT22;15238;49.082;9.102;2022-09-03T02:03:01;16.20;93.00
27890;DHT22;15238;49.082;9.102;2022-09-03T02:05:09;16.10;93.10
27890;DHT22;15238;49.082;9.102;2022-09-03T02:07:10;16.10;93.10
27890;DHT22;15238;49.082;9.102;2022-09-03T02:09:10;16.10;93.20
27890;DHT22;15238;49.082;9.102;2022-09-03T02:11:11;16.10;93.30
27890;DHT22;15238;49.082;9.102;2022-09-03T02:13:28;16.10;93.40
27890;DHT22;15238;49.082;9.102;2022-09-03T02:15:30;16.10;93.50
27890;DHT22;15238;49.082;9.102;2022-09-03T02:17:32;16.10;93.20
27890;DHT22;15238;49.082;9.102;2022-09-03T02:19:34;16.20;93.40
27890;DHT22;15238;49.082;9.102;2022-09-03T02:21:50;16.10;93.20
27890;DHT22;15238;49.082;9.102;2022-09-03T02:23:51;16.20;93.20
27890;DHT22;15238;49.082;9.102;2022-09-03T02:25:55;16.20;93.00
27890;DHT22;15238;49.082;9.102;2022-09-03T02:27:56;16.20;93.00
27890;DHT22;15238;49.082;9.102;2022-09-03T02:29:57;16.20;93.10
27890;DHT22;15238;49.082;9.102;2022-09-03T02:31:58;16.30;93.20
27890;DHT22;15238;49.082;9.102;2022-09-03T02:33:59;16.30;93.20
27890;DHT22;15238;49.082;9.102;2022-09-03T02:36:00;16.30;93.20
27890;DHT22;15238;49.082;9.102;2022-09-03T02:38:18;16.30;93.30
27890;DHT22;15238;49.082;9.102;2022-09-03T02:40:19;16.30;93.40
27890;DHT22;15238;49.082;9.102;2022-09-03T02:42:19;16.30;93.20
27890;DHT22;15238;49.082;9.102;2022-09-03T02:44:34;16.40;93.20
27890;DHT22;15238;49.082;9.102;2022-09-03T02:46:44;16.40;93.20
27890;DHT22;15238;49.082;9.102;2022-09-03T02:48:46;16.40;93.40
27890;DHT22;15238;49.082;9.102;2022-09-03T02:50:46;16.40;93.60
27890;DHT22;15238;49.082;9.102;2022-09-03T02:52:47;16.50;93.60
27890;DHT22;15238;49.082;9.102;2022-09-03T02:54:47;16.50;93.60
27890;DHT22;15238;49.082;9.102;2022-09-03T02:56:47;16.40;93.50
27890;DHT22;15238;49.082;9.102;2022-09-03T02:58:49;16.30;93.70
27890;DHT22;15238;49.082;9.102;2022-09-03T03:00:49;16.40;93.70
27890;DHT22;15238;49.082;9.102;2022-09-03T03:02:50;16.30;93.70
27890;DHT22;15238;49.082;9.102;2022-09-03T03:04:51;16.30;93.70
27890;DHT22;15238;49.082;9.102;2022-09-03T03:06:53;16.30;93.80
27890;DHT22;15238;49.082;9.102;2022-09-03T03:08:53;16.30;93.90
27890;DHT22;15238;49.082;9.102;2022-09-03T03:10:57;16.30;93.90
27890;DHT22;15238;49.082;9.102;2022-09-03T03:12:59;16.30;94.00
27890;DHT22;15238;49.082;9.102;2022-09-03T03:15:00;16.30;94.10
27890;DHT22;15238;49.082;9.102;2022-09-03T03:17:01;16.30;94.00
27890;DHT22;15238;49.082;9.102;2022-09-03T03:19:01;16.30;93.90
27890;DHT22;15238;49.082;9.102;2022-09-03T03:21:09;16.20;94.10
27890;DHT22;15238;49.082;9.102;2022-09-03T03:23:10;16.10;94.10
27890;DHT22;15238;49.082;9.102;2022-09-03T03:25:10;16.00;94.30
27890;DHT22;15238;49.082;9.102;2022-09-03T03:27:11;16.10;94.50
27890;DHT22;15238;49.082;9.102;2022-09-03T03:29:15;16.00;94.60
27890;DHT22;15238;49.082;9.102;2022-09-03T03:31:19;15.90;94.70
27890;DHT22;15238;49.082;9.102;2022-09-03T03:33:20;16.00;94.80
27890;DHT22;15238;49.082;9.102;2022-09-03T03:35:21;16.00;95.30
27890;DHT22;15238;49.082;9.102;2022-09-03T03:37:21;16.00;95.00
27890;DHT22;15238;49.082;9.102;2022-09-03T03:39:22;16.00;94.90
27890;DHT22;15238;49.082;9.102;2022-09-03T03:41:25;16.10;94.90
27890;DHT22;15238;49.082;9.102;2022-09-03T03:43:26;16.10;94.90
27890;DHT22;15238;49.082;9.102;2022-09-03T03:45:26;16.10;94.90
27890;DHT22;15238;49.082;9.102;2022-09-03T03:47:28;16.10;94.90
27890;DHT22;15238;49.082;9.102;2022-09-03T03:49:30;16.10;94.80
27890;DHT22;15238;49.082;9.102;2022-09-03T03:51:31;16.10;94.80
27890;DHT22;15238;49.082;9.102;2022-09-03T03:53:33;16.10;94.90
27890;DHT22;15238;49.082;9.102;2022-09-03T03:55:33;16.10;94.90
27890;DHT22;15238;49.082;9.102;2022-09-03T03:57:34;16.00;95.00
27890;DHT22;15238;49.082;9.102;2022-09-03T03:59:36;16.00;95.00
27890;DHT22;15238;49.082;9.102;2022-09-03T04:01:36;16.00;95.10
27890;DHT22;15238;49.082;9.102;2022-09-03T04:03:37;16.00;95.20
27890;DHT22;15238;49.082;9.102;2022-09-03T04:05:38;16.10;95.10
27890;DHT22;15238;49.082;9.102;2022-09-03T04:07:38;16.10;95.10
27890;DHT22;15238;49.082;9.102;2022-09-03T04:09:39;16.10;95.10
27890;DHT22;15238;49.082;9.102;2022-09-03T04:11:39;16.10;95.20
27890;DHT22;15238;49.082;9.102;2022-09-03T04:13:42;16.10;95.30
27890;DHT22;15238;49.082;9.102;2022-09-03T04:15:43;16.10;95.30
27890;DHT22;15238;49.082;9.102;2022-09-03T04:17:44;16.10;95.30
27890;DHT22;15238;49.082;9.102;2022-09-03T04:19:44;16.00;95.40
27890;DHT22;15238;49.082;9.102;2022-09-03T04:21:47;16.00;95.50
27890;DHT22;15238;49.082;9.102;2022-09-03T04:23:49;16.00;95.60
27890;DHT22;15238;49.082;9.102;2022-09-03T04:25:53;16.00;95.70
27890;DHT22;15238;49.082;9.102;2022-09-03T04:27:53;16.00;95.70
27890;DHT22;15238;49.082;9.102;2022-09-03T04:29:54;16.10;95.70
27890;DHT22;15238;49.082;9.102;2022-09-03T04:31:54;16.10;95.70
27890;DHT22;15238;49.082;9.102;2022-09-03T04:34:13;16.00;95.90
27890;DHT22;15238;49.082;9.102;2022-09-03T04:36:16;15.90;96.20
27890;DHT22;15238;49.082;9.102;2022-09-03T04:38:17;15.90;96.30
27890;DHT22;15238;49.082;9.102;2022-09-03T04:40:18;15.90;96.20
27890;DHT22;15238;49.082;9.102;2022-09-03T04:42:18;16.00;96.50
27890;DHT22;15238;49.082;9.102;2022-09-03T04:44:19;16.00;96.40
27890;DHT22;15238;49.082;9.102;2022-09-03T04:46:21;16.00;96.40
27890;DHT22;15238;49.082;9.102;2022-09-03T04:48:22;16.00;96.40
27890;DHT22;15238;49.082;9.102;2022-09-03T04:50:22;16.00;96.50
27890;DHT22;15238;49.082;9.102;2022-09-03T04:52:23;16.00;96.60
27890;DHT22;15238;49.082;9.102;2022-09-03T04:54:23;16.00;96.60
27890;DHT22;15238;49.082;9.102;2022-09-03T04:56:26;16.00;96.70
27890;DHT22;15238;49.082;9.102;2022-09-03T04:58:27;16.10;96.80
27890;DHT22;15238;49.082;9.102;2022-09-03T05:00:27;16.10;96.90
27890;DHT22;15238;49.082;9.102;2022-09-03T05:02:28;16.10;96.80
27890;DHT22;15238;49.082;9.102;2022-09-03T05:04:28;16.10;96.50
27890;DHT22;15238;49.082;9.102;2022-09-03T05:06:30;16.10;96.60
27890;DHT22;15238;49.082;9.102;2022-09-03T05:08:31;16.20;96.60
27890;DHT22;15238;49.082;9.102;2022-09-03T05:10:32;16.20;96.60
27890;DHT22;15238;49.082;9.102;2022-09-03T05:12:33;16.20;96.70
27890;DHT22;15238;49.082;9.102;2022-09-03T05:14:33;16.20;96.80
27890;DHT22;15238;49.082;9.102;2022-09-03T05:16:34;16.20;96.80
27890;DHT22;15238;49.082;9.102;2022-09-03T05:18:35;16.30;96.90
27890;DHT22;15238;49.082;9.102;2022-09-03T05:20:35;16.30;97.00
27890;DHT22;15238;49.082;9.102;2022-09-03T05:22:36;16.30;97.10
27890;DHT22;15238;49.082;9.102;2022-09-03T05:24:36;16.40;96.80
27890;DHT22;15238;49.082;9.102;2022-09-03T05:26:38;16.30;97.30
27890;DHT22;15238;49.082;9.102;2022-09-03T05:28:40;16.40;97.20
27890;DHT22;15238;49.082;9.102;2022-09-03T05:30:41;16.40;97.00
27890;DHT22;15238;49.082;9.102;2022-09-03T05:32:42;16.40;96.90
27890;DHT22;15238;49.082;9.102;2022-09-03T05:34:43;16.50;96.90
27890;DHT22;15238;49.082;9.102;2022-09-03T05:36:43;16.60;97.00
27890;DHT22;15238;49.082;9.102;2022-09-03T05:38:46;16.60;96.90
27890;DHT22;15238;49.082;9.102;2022-09-03T05:40:46;16.70;96.80
27890;DHT22;15238;49.082;9.102;2022-09-03T05:42:47;16.80;96.60
27890;DHT22;15238;49.082;9.102;2022-09-03T05:44:48;16.80;96.60
27890;DHT22;15238;49.082;9.102;2022-09-03T05:46:49;16.90;96.60
27890;DHT22;15238;49.082;9.102;2022-09-03T05:48:51;16.90;96.30
27890;DHT22;15238;49.082;9.102;2022-09-03T05:51:02;17.00;96.40
27890;DHT22;15238;49.082;9.102;2022-09-03T05:53:03;17.00;96.40
27890;DHT22;15238;49.082;9.102;2022-09-03T05:55:04;17.00;96.60
27890;DHT22;15238;49.082;9.102;2022-09-03T05:57:05;17.10;96.40
27890;DHT22;15238;49.082;9.102;2022-09-03T05:59:07;17.10;96.30
27890;DHT22;15238;49.082;9.102;2022-09-03T06:01:10;17.20;96.20
27890;DHT22;15238;49.082;9.102;2022-09-03T06:03:12;17.30;96.40
27890;DHT22;15238;49.082;9.102;2022-09-03T06:05:12;17.40;96.20
27890;DHT22;15238;49.082;9.102;2022-09-03T06:07:13;17.50;96.10
27890;DHT22;15238;49.082;9.102;2022-09-03T06:09:16;17.60;96.00
27890;DHT22;15238;49.082;9.102;2022-09-03T06:11:17;17.70;95.50
27890;DHT22;15238;49.082;9.102;2022-09-03T06:13:18;17.70;95.50
27890;DHT22;15238;49.082;9.102;2022-09-03T06:15:18;17.90;95.40
27890;DHT22;15238;49.082;9.102;2022-09-03T06:17:19;18.00;95.20
27890;DHT22;15238;49.082;9.102;2022-09-03T06:19:20;18.10;94.90
27890;DHT22;15238;49.082;9.102;2022-09-03T06:21:21;18.20;94.70
27890;DHT22;15238;49.082;9.102;2022-09-03T06:23:22;18.20;94.60
27890;DHT22;15238;49.082;9.102;2022-09-03T06:25:23;18.30;94.80
27890;DHT22;15238;49.082;9.102;2022-09-03T06:27:24;18.30;94.80
27890;DHT22;15238;49.082;9.102;2022-09-03T06:29:24;18.30;95.00
27890;DHT22;15238;49.082;9.102;2022-09-03T06:31:25;18.30;94.60
27890;DHT22;15238;49.082;9.102;2022-09-03T06:33:26;18.40;94.40
27890;DHT22;15238;49.082;9.102;2022-09-03T06:35:26;18.40;94.40
27890;DHT22;15238;49.082;9.102;2022-09-03T06:37:27;18.50;94.20
27890;DHT22;15238;49.082;9.102;2022-09-03T06:39:27;18.50;93.90
27890;DHT22;15238;49.082;9.102;2022-09-03T06:41:30;18.60;93.90
27890;DHT22;15238;49.082;9.102;2022-09-03T06:43:36;18.70;93.50
27890;DHT22;15238;49.082;9.102;2022-09-03T06:45:37;18.70;93.20
27890;DHT22;15238;49.082;9.102;2022-09-03T06:47:37;18.70;93.60
27890;DHT22;15238;49.082;9.102;2022-09-03T06:49:38;18.80;93.50
27890;DHT22;15238;49.082;9.102;2022-09-03T06:51:39;18.90;93.40
27890;DHT22;15238;49.082;9.102;2022-09-03T06:53:43;19.00;93.00
27890;DHT22;15238;49.082;9.102;2022-09-03T06:55:52;19.00;92.90
27890;DHT22;15238;49.082;9.102;2022-09-03T06:57:55;19.20;93.00
27890;DHT22;15238;49.082;9.102;2022-09-03T06:59:56;19.30;92.60
27890;DHT22;15238;49.082;9.102;2022-09-03T07:01:57;19.40;92.60
27890;DHT22;15238;49.082;9.102;2022-09-03T07:04:04;19.50;92.70
27890;DHT22;15238;49.082;9.102;2022-09-03T07:06:07;19.60;92.10
27890;DHT22;15238;49.082;9.102;2022-09-03T07:08:08;19.50;91.90
27890;DHT22;15238;49.082;9.102;2022-09-03T07:10:09;19.50;92.10
27890;DHT22;15238;49.082;9.102;2022-09-03T07:12:13;19.40;92.10
27890;DHT22;15238;49.082;9.102;2022-09-03T07:14:16;19.50;92.20
27890;DHT22;15238;49.082;9.102;2022-09-03T07:16:20;19.50;92.40
27890;DHT22;15238;49.082;9.102;2022-09-03T07:18:20;19.50;92.30
27890;DHT22;15238;49.082;9.102;2022-09-03T07:20:21;19.40;92.10
27890;DHT22;15238;49.082;9.102;2022-09-03T07:22:21;19.40;93.00
27890;DHT22;15238;49.082;9.102;2022-09-03T07:24:22;19.40;92.90
27890;DHT22;15238;49.082;9.102;2022-09-03T07:26:30;19.50;93.00
27890;DHT22;15238;49.082;9.102;2022-09-03T07:28:34;19.40;93.20
27890;DHT22;15238;49.082;9.102;2022-09-03T07:30:35;19.50;93.00
27890;DHT22;15238;49.082;9.102;2022-09-03T07:32:35;19.40;93.20
27890;DHT22;15238;49.082;9.102;2022-09-03T07:34:40;19.30;93.70
27890;DHT22;15238;49.082;9.102;2022-09-03T07:36:46;19.30;94.70
27890;DHT22;15238;49.082;9.102;2022-09-03T07:38:47;19.30;94.20
27890;DHT22;15238;49.082;9.102;2022-09-03T07:40:47;19.20;95.00
27890;DHT22;15238;49.082;9.102;2022-09-03T07:42:48;19.20;94.40
27890;DHT22;15238;49.082;9.102;2022-09-03T07:44:48;19.30;94.90
27890;DHT22;15238;49.082;9.102;2022-09-03T07:46:49;19.20;94.60
27890;DHT22;15238;49.082;9.102;2022-09-03T07:48:50;19.20;94.70
27890;DHT22;15238;49.082;9.102;2022-09-03T07:50:52;19.20;94.50
27890;DHT22;15238;49.082;9.102;2022-09-03T07:52:57;19.20;94.70
27890;DHT22;15238;49.082;9.102;2022-09-03T07:54:58;19.20;94.40
27890;DHT22;15238;49.082;9.102;2022-09-03T07:56:58;19.20;94.10
27890;DHT22;15238;49.082;9.102;2022-09-03T07:58:59;19.20;94.30
27890;DHT22;15238;49.082;9.102;2022-09-03T08:01:12;19.30;94.10
27890;DHT22;15238;49.082;9.102;2022-09-03T08:03:13;19.50;93.70
27890;DHT22;15238;49.082;9.102;2022-09-03T08:05:13;19.60;93.50
27890;DHT22;15238;49.082;9.102;2022-09-03T08:07:14;19.70;93.20
27890;DHT22;15238;49.082;9.102;2022-09-03T08:09:14;19.80;93.30
27890;DHT22;15238;49.082;9.102;2022-09-03T08:11:18;20.00;93.30
27890;DHT22;15238;49.082;9.102;2022-09-03T08:13:19;20.20;93.00
27890;DHT22;15238;49.082;9.102;2022-09-03T08:15:20;20.40;92.40
27890;DHT22;15238;49.082;9.102;2022-09-03T08:17:20;20.60;92.00
27890;DHT22;15238;49.082;9.102;2022-09-03T08:19:21;21.10;91.30
27890;DHT22;15238;49.082;9.102;2022-09-03T08:21:23;21.50;90.90
27890;DHT22;15238;49.082;9.102;2022-09-03T08:23:24;21.80;90.20
27890;DHT22;15238;49.082;9.102;2022-09-03T08:25:24;21.90;89.80
27890;DHT22;15238;49.082;9.102;2022-09-03T08:27:25;22.10;89.10
27890;DHT22;15238;49.082;9.102;2022-09-03T08:29:26;22.20;88.60
27890;DHT22;15238;49.082;9.102;2022-09-03T08:31:28;21.80;89.90
27890;DHT22;15238;49.082;9.102;2022-09-03T08:33:28;21.80;90.00
27890;DHT22;15238;49.082;9.102;2022-09-03T08:35:38;21.40;90.20
27890;DHT22;15238;49.082;9.102;2022-09-03T08:37:39;21.30;90.60
27890;DHT22;15238;49.082;9.102;2022-09-03T08:39:39;21.40;90.40
27890;DHT22;15238;49.082;9.102;2022-09-03T08:45:58;21.30;91.40
27890;DHT22;15238;49.082;9.102;2022-09-03T08:48:25;21.40;91.20
27890;DHT22;15238;49.082;9.102;2022-09-03T08:50:30;21.30;91.00
27890;DHT22;15238;49.082;9.102;2022-09-03T08:52:37;21.10;91.40
27890;DHT22;15238;49.082;9.102;2022-09-03T08:54:39;21.10;91.90
27890;DHT22;15238;49.082;9.102;2022-09-03T08:56:42;21.10;91.90
27890;DHT22;15238;49.082;9.102;2022-09-03T08:58:43;21.20;91.80
27890;DHT22;15238;49.082;9.102;2022-09-03T09:00:56;21.10;91.70
27890;DHT22;15238;49.082;9.102;2022-09-03T09:07:56;21.30;91.80
27890;DHT22;15238;49.082;9.102;2022-09-03T09:15:13;21.20;91.50
27890;DHT22;15238;49.082;9.102;2022-09-03T09:17:27;21.20;91.70
27890;DHT22;15238;49.082;9.102;2022-09-03T09:22:05;21.20;92.20
27890;DHT22;15238;49.082;9.102;2022-09-03T09:24:16;21.30;91.80
27890;DHT22;15238;49.082;9.102;2022-09-03T09:26:22;21.30;91.70
27890;DHT22;15238;49.082;9.102;2022-09-03T09:28:28;21.30;91.80
27890;DHT22;15238;49.082;9.102;2022-09-03T09:30:31;21.50;91.50
27890;DHT22;15238;49.082;9.102;2022-09-03T09:32:31;21.50;91.30
27890;DHT22;15238;49.082;9.102;2022-09-03T09:34:37;21.50;91.50
27890;DHT22;15238;49.082;9.102;2022-09-03T09:36:51;21.50;91.50
27890;DHT22;15238;49.082;9.102;2022-09-03T09:38:52;21.60;91.40
27890;DHT22;15238;49.082;9.102;2022-09-03T09:40:53;21.40;91.50
27890;DHT22;15238;49.082;9.102;2022-09-03T09:43:12;21.20;92.00
27890;DHT22;15238;49.082;9.102;2022-09-03T09:45:15;21.10;92.00
27890;DHT22;15238;49.082;9.102;2022-09-03T09:47:23;21.20;92.30
27890;DHT22;15238;49.082;9.102;2022-09-03T09:51:31;21.30;92.10
27890;DHT22;15238;49.082;9.102;2022-09-03T09:53:32;21.50;92.20
27890;DHT22;15238;49.082;9.102;2022-09-03T09:55:34;21.80;91.90
27890;DHT22;15238;49.082;9.102;2022-09-03T09:57:38;22.10;91.40
27890;DHT22;15238;49.082;9.102;2022-09-03T09:59:39;22.30;91.00
27890;DHT22;15238;49.082;9.102;2022-09-03T10:01:44;22.30;90.60
27890;DHT22;15238;49.082;9.102;2022-09-03T10:03:51;22.20;90.70
27890;DHT22;15238;49.082;9.102;2022-09-03T10:05:57;22.20;90.60
27890;DHT22;15238;49.082;9.102;2022-09-03T10:08:02;22.20;91.00
27890;DHT22;15238;49.082;9.102;2022-09-03T10:12:34;22.20;91.00
27890;DHT22;15238;49.082;9.102;2022-09-03T10:14:43;22.60;90.70
27890;DHT22;15238;49.082;9.102;2022-09-03T10:16:49;22.90;89.70
27890;DHT22;15238;49.082;9.102;2022-09-03T10:19:04;23.20;89.90
27890;DHT22;15238;49.082;9.102;2022-09-03T10:24:10;23.70;88.00
27890;DHT22;15238;49.082;9.102;2022-09-03T10:26:21;23.70;87.60
27890;DHT22;15238;49.082;9.102;2022-09-03T10:28:30;23.60;88.10
27890;DHT22;15238;49.082;9.102;2022-09-03T10:30:40;23.70;87.90
27890;DHT22;15238;49.082;9.102;2022-09-03T10:33:10;23.70;87.90
27890;DHT22;15238;49.082;9.102;2022-09-03T10:35:35;23.80;88.10
27890;DHT22;15238;49.082;9.102;2022-09-03T10:37:59;24.00;87.70
27890;DHT22;15238;49.082;9.102;2022-09-03T10:44:46;24.00;87.70
27890;DHT22;15238;49.082;9.102;2022-09-03T10:51:44;24.00;88.10
27890;DHT22;15238;49.082;9.102;2022-09-03T10:54:18;24.20;89.00
27890;DHT22;15238;49.082;9.102;2022-09-03T10:56:37;24.40;87.00
27890;DHT22;15238;49.082;9.102;2022-09-03T11:03:40;24.60;86.80
27890;DHT22;15238;49.082;9.102;2022-09-03T11:05:52;24.50;86.50
27890;DHT22;15238;49.082;9.102;2022-09-03T11:08:02;24.60;86.50
27890;DHT22;15238;49.082;9.102;2022-09-03T11:10:37;24.80;87.10
27890;DHT22;15238;49.082;9.102;2022-09-03T11:12:47;24.90;86.70
27890;DHT22;15238;49.082;9.102;2022-09-03T11:14:58;25.10;85.40
27890;DHT22;15238;49.082;9.102;2022-09-03T11:17:20;25.30;86.00
27890;DHT22;15238;49.082;9.102;2022-09-03T11:19:31;25.50;85.50
27890;DHT22;15238;49.082;9.102;2022-09-03T11:21:35;25.70;84.20
27890;DHT22;15238;49.082;9.102;2022-09-03T11:23:41;25.70;83.10
27890;DHT22;15238;49.082;9.102;2022-09-03T11:25:55;25.80;83.00
27890;DHT22;15238;49.082;9.102;2022-09-03T11:29:17;25.90;83.20
27890;DHT22;15238;49.082;9.102;2022-09-03T11:31:06;25.60;83.50
27890;DHT22;15238;49.082;9.102;2022-09-03T11:33:12;25.60;84.50
27890;DHT22;15238;49.082;9.102;2022-09-03T11:37:29;25.80;82.70
27890;DHT22;15238;49.082;9.102;2022-09-03T11:39:39;25.80;82.40
27890;DHT22;15238;49.082;9.102;2022-09-03T11:41:40;25.50;83.50
27890;DHT22;15238;49.082;9.102;2022-09-03T11:43:41;25.50;83.80
27890;DHT22;15238;49.082;9.102;2022-09-03T11:45:43;25.60;83.70
27890;DHT22;15238;49.082;9.102;2022-09-03T11:47:44;25.60;84.10
27890;DHT22;15238;49.082;9.102;2022-09-03T11:49:49;25.60;83.50
27890;DHT22;15238;49.082;9.102;2022-09-03T11:52:01;25.70;83.60
27890;DHT22;15238;49.082;9.102;2022-09-03T11:54:06;25.60;83.10
27890;DHT22;15238;49.082;9.102;2022-09-03T11:58:23;25.50;83.40
27890;DHT22;15238;49.082;9.102;2022-09-03T12:00:24;25.60;83.70
27890;DHT22;15238;49.082;9.102;2022-09-03T12:02:29;25.40;83.30
27890;DHT22;15238;49.082;9.102;2022-09-03T12:09:47;25.10;85.10
27890;DHT22;15238;49.082;9.102;2022-09-03T12:12:04;25.00;85.30
27890;DHT22;15238;49.082;9.102;2022-09-03T12:14:26;25.00;85.30
27890;DHT22;15238;49.082;9.102;2022-09-03T12:18:39;25.00;85.10
27890;DHT22;15238;49.082;9.102;2022-09-03T12:20:41;24.90;86.00
27890;DHT22;15238;49.082;9.102;2022-09-03T12:22:42;24.90;86.10
27890;DHT22;15238;49.082;9.102;2022-09-03T12:24:43;24.80;86.20
27890;DHT22;15238;49.082;9.102;2022-09-03T12:26:44;24.80;87.00
27890;DHT22;15238;49.082;9.102;2022-09-03T12:28:47;24.70;86.60
27890;DHT22;15238;49.082;9.102;2022-09-03T12:30:49;24.70;87.20
27890;DHT22;15238;49.082;9.102;2022-09-03T12:33:05;24.70;87.20
27890;DHT22;15238;49.082;9.102;2022-09-03T12:35:16;24.70;87.00
27890;DHT22;15238;49.082;9.102;2022-09-03T12:37:22;24.70;86.90
27890;DHT22;15238;49.082;9.102;2022-09-03T12:39:25;24.50;87.90
27890;DHT22;15238;49.082;9.102;2022-09-03T12:41:28;24.30;89.30
27890;DHT22;15238;49.082;9.102;2022-09-03T12:43:30;24.30;90.80
27890;DHT22;15238;49.082;9.102;2022-09-03T12:45:31;24.30;91.00
27890;DHT22;15238;49.082;9.102;2022-09-03T12:47:37;24.40;91.50
27890;DHT22;15238;49.082;9.102;2022-09-03T12:49:40;24.40;91.60
27890;DHT22;15238;49.082;9.102;2022-09-03T12:51:42;24.40;91.20
27890;DHT22;15238;49.082;9.102;2022-09-03T12:53:45;24.40;91.00
27890;DHT22;15238;49.082;9.102;2022-09-03T12:55:49;24.50;90.90
27890;DHT22;15238;49.082;9.102;2022-09-03T12:58:00;24.60;90.50
27890;DHT22;15238;49.082;9.102;2022-09-03T13:00:08;24.70;90.60
27890;DHT22;15238;49.082;9.102;2022-09-03T13:02:24;24.80;90.20
27890;DHT22;15238;49.082;9.102;2022-09-03T13:04:32;24.80;90.20
27890;DHT22;15238;49.082;9.102;2022-09-03T13:06:49;25.00;89.70
27890;DHT22;15238;49.082;9.102;2022-09-03T13:08:58;25.10;89.20
27890;DHT22;15238;49.082;9.102;2022-09-03T13:11:02;25.30;88.10
27890;DHT22;15238;49.082;9.102;2022-09-03T13:13:25;25.50;88.00
27890;DHT22;15238;49.082;9.102;2022-09-03T13:15:27;25.70;87.50
27890;DHT22;15238;49.082;9.102;2022-09-03T13:17:51;25.80;86.60
27890;DHT22;15238;49.082;9.102;2022-09-03T13:20:06;25.70;87.00
27890;DHT22;15238;49.082;9.102;2022-09-03T13:24:52;25.80;86.80
27890;DHT22;15238;49.082;9.102;2022-09-03T13:31:46;25.60;87.10
27890;DHT22;15238;49.082;9.102;2022-09-03T13:33:52;25.10;90.10
27890;DHT22;15238;49.082;9.102;2022-09-03T13:36:15;24.50;91.40
27890;DHT22;15238;49.082;9.102;2022-09-03T13:40:41;23.90;93.20
27890;DHT22;15238;49.082;9.102;2022-09-03T13:42:49;23.60;93.60
27890;DHT22;15238;49.082;9.102;2022-09-03T13:45:02;23.30;94.20
27890;DHT22;15238;49.082;9.102;2022-09-03T13:47:26;23.40;94.70
27890;DHT22;15238;49.082;9.102;2022-09-03T13:51:57;23.00;96.30
27890;DHT22;15238;49.082;9.102;2022-09-03T13:54:13;23.10;96.00
27890;DHT22;15238;49.082;9.102;2022-09-03T13:56:20;22.90;96.10
27890;DHT22;15238;49.082;9.102;2022-09-03T13:58:41;22.80;96.40
27890;DHT22;15238;49.082;9.102;2022-09-03T14:00:53;22.90;96.00
27890;DHT22;15238;49.082;9.102;2022-09-03T14:03:09;22.90;96.20
27890;DHT22;15238;49.082;9.102;2022-09-03T14:11:57;22.10;96.50
27890;DHT22;15238;49.082;9.102;2022-09-03T14:14:27;22.10;96.00
27890;DHT22;15238;49.082;9.102;2022-09-03T14:18:58;22.00;96.00
27890;DHT22;15238;49.082;9.102;2022-09-03T14:21:09;22.00;95.40
27890;DHT22;15238;49.082;9.102;2022-09-03T14:25:25;21.90;97.40
27890;DHT22;15238;49.082;9.102;2022-09-03T14:27:30;21.90;98.00
27890;DHT22;15238;49.082;9.102;2022-09-03T14:29:33;21.70;99.60
27890;DHT22;15238;49.082;9.102;2022-09-03T14:32:11;21.70;99.90
27890;DHT22;15238;49.082;9.102;2022-09-03T14:36:52;21.70;99.90
27890;DHT22;15238;49.082;9.102;2022-09-03T14:39:02;21.60;99.90
27890;DHT22;15238;49.082;9.102;2022-09-03T14:51:47;20.80;99.90
27890;DHT22;15238;49.082;9.102;2022-09-03T15:00:26;20.80;99.90
27890;DHT22;15238;49.082;9.102;2022-09-03T15:12:17;20.30;99.90
27890;DHT22;15238;49.082;9.102;2022-09-03T15:14:38;20.30;99.90
27890;DHT22;15238;49.082;9.102;2022-09-03T15:21:22;19.90;99.90
27890;DHT22;15238;49.082;9.102;2022-09-03T15:28:29;19.50;99.90
27890;DHT22;15238;49.082;9.102;2022-09-03T15:30:40;19.60;99.90
27890;DHT22;15238;49.082;9.102;2022-09-03T15:34:52;19.70;99.90
27890;DHT22;15238;49.082;9.102;2022-09-03T15:36:56;19.60;99.90
27890;DHT22;15238;49.082;9.102;2022-09-03T15:39:02;19.60;99.90
27890;DHT22;15238;49.082;9.102;2022-09-03T15:43:33;19.70;99.90
27890;DHT22;15238;49.082;9.102;2022-09-03T15:45:48;19.80;99.90
27890;DHT22;15238;49.082;9.102;2022-09-03T15:47:54;19.90;99.90
27890;DHT22;15238;49.082;9.102;2022-09-03T15:50:10;20.00;99.90
27890;DHT22;15238;49.082;9.102;2022-09-03T15:55:23;20.20;99.90